This is the latest recevied weather packets stored in our database for station/object SA7BGG-5. If no packets are shown the sender has not sent any weather packets the latest 10 day(s).
| Time | Temp. | Humidity | Pressure | Rain* | Wind** | Luminosity | Snow |
|---|---|---|---|---|---|---|---|
| 1777939508 | 5.56° C | 82% | 1015 hPa | - | - | - | - |
| 1777937401 | 6.11° C | 82% | 1015 hPa | - | - | - | - |
| 1777937101 | 6.67° C | 81% | 1015 hPa | - | - | - | - |
| 1777928701 | 8.33° C | 72% | 1015 hPa | - | - | - | - |
| 1777924501 | 10.56° C | 65% | 1015 hPa | - | - | - | - |
| 1777916100 | 15° C | 47% | 1014 hPa | - | - | - | - |
| 1777915505 | 15° C | 46% | 1014 hPa | - | - | - | - |
| 1777910103 | 17.22° C | 40% | 1014 hPa | - | - | - | - |
| 1777909202 | 17.22° C | 42% | 1014 hPa | - | - | - | - |
| 1777908901 | 17.78° C | 40% | 1014 hPa | - | - | - | - |
| 1777908301 | 17.78° C | 39% | 1014 hPa | - | - | - | - |
| 1777906504 | 18.89° C | 35% | 1014 hPa | - | - | - | - |
| 1777905602 | 18.89° C | 36% | 1014 hPa | - | - | - | - |
| 1777905302 | 18.89° C | 36% | 1014 hPa | - | - | - | - |
| 1777903505 | 18.89° C | 33% | 1014 hPa | - | - | - | - |
| 1777901702 | 19.44° C | 35% | 1014 hPa | - | - | - | - |
| 1777901102 | 18.89° C | 36% | 1013 hPa | - | - | - | - |
| 1777900801 | 18.89° C | 36% | 1013 hPa | - | - | - | - |
| 1777900501 | 18.89° C | 36% | 1013 hPa | - | - | - | - |
| 1777900201 | 18.89° C | 36% | 1013 hPa | - | - | - | - |
| 1777898103 | 18.33° C | 54% | 1013 hPa | - | - | - | - |
| 1777897803 | 18.33° C | 54% | 1013 hPa | - | - | - | - |
| 1777897502 | 17.78° C | 66% | 1013 hPa | - | - | - | - |
| 1777897202 | 17.78° C | 66% | 1013 hPa | - | - | - | - |
| 1777896902 | 17.22° C | 68% | 1013 hPa | - | - | - | - |
* Rain since midnight (hover to see other rain measurements)
** Current wind speed in m/s (hover to see current wind gust speed)